createdAt,value
2023-03-30T00:00:06.080Z,100539.60
2023-03-30T00:03:14.065Z,100537.38
2023-03-30T00:06:21.640Z,100531.23
2023-03-30T00:09:30.213Z,100537.74
2023-03-30T00:12:36.296Z,100535.41
2023-03-30T00:15:42.789Z,100538.61
2023-03-30T00:18:47.994Z,100543.27
2023-03-30T00:21:54.560Z,100543.62
2023-03-30T00:25:03.343Z,100555.91
2023-03-30T00:28:09.445Z,100544.98
2023-03-30T00:31:17.470Z,100550.98
2023-03-30T00:34:23.637Z,100544.23
2023-03-30T00:37:30.740Z,100539.70
2023-03-30T00:40:36.765Z,100530.97
2023-03-30T00:43:42.895Z,100537.97
2023-03-30T00:46:51.818Z,100545.80
2023-03-30T00:50:01.561Z,100531.58
2023-03-30T00:53:08.936Z,100532.92
2023-03-30T00:56:14.944Z,100531.30
2023-03-30T00:59:23.756Z,100530.59
2023-03-30T01:02:30.934Z,100525.79
2023-03-30T01:05:42.488Z,100528.37
2023-03-30T01:08:50.929Z,100521.14
2023-03-30T01:11:59.969Z,100523.09
2023-03-30T01:15:05.540Z,100539.77
2023-03-30T01:18:13.277Z,100532.18
2023-03-30T01:21:46.379Z,100539.89
2023-03-30T01:25:19.063Z,100541.23
2023-03-30T01:28:57.184Z,100544.80
2023-03-30T01:32:34.239Z,100551.92
2023-03-30T01:36:24.739Z,100559.54
2023-03-30T01:39:40.526Z,100562.72
2023-03-30T01:42:57.380Z,100554.85
2023-03-30T01:46:23.489Z,100563.91
2023-03-30T01:50:13.001Z,100566.13
2023-03-30T01:53:33.800Z,100573.95
2023-03-30T01:57:04.409Z,100573.95
2023-03-30T02:00:17.122Z,100578.39
2023-03-30T02:03:29.474Z,100580.98
2023-03-30T02:06:53.423Z,100580.70
2023-03-30T02:10:01.274Z,100585.14
2023-03-30T02:13:08.111Z,100585.63
2023-03-30T02:16:18.520Z,100584.27
2023-03-30T02:19:24.501Z,100594.95
2023-03-30T02:22:30.797Z,100605.52
2023-03-30T02:25:37.136Z,100615.36
2023-03-30T02:28:43.840Z,100626.52
2023-03-30T02:31:51.162Z,100630.32
2023-03-30T02:35:22.072Z,100639.38
2023-03-30T02:38:40.975Z,100632.03
2023-03-30T02:41:58.045Z,100640.88
2023-03-30T02:45:15.140Z,100635.37
2023-03-30T02:48:41.584Z,100628.23
2023-03-30T02:52:00.165Z,100629.97
2023-03-30T02:55:13.452Z,100624.17
2023-03-30T02:58:34.210Z,100618.42
2023-03-30T03:01:58.210Z,100626.27
2023-03-30T03:05:03.307Z,100632.74
2023-03-30T03:08:04.862Z,100641.59
2023-03-30T03:11:11.544Z,100635.48
2023-03-30T03:14:18.555Z,100638.30
2023-03-30T03:17:25.771Z,100636.44
2023-03-30T03:20:34.960Z,100641.72
2023-03-30T03:23:43.363Z,100640.77
2023-03-30T03:26:53.083Z,100635.73
2023-03-30T03:30:04.072Z,100627.78
2023-03-30T03:33:15.101Z,100629.97
2023-03-30T03:36:25.504Z,100626.05
2023-03-30T03:39:33.967Z,100628.62
2023-03-30T03:42:41.906Z,100626.87
2023-03-30T03:45:48.383Z,100637.31
2023-03-30T03:48:55.174Z,100635.95
2023-03-30T03:52:02.526Z,100637.03
2023-03-30T03:55:12.848Z,100630.52
2023-03-30T03:58:21.240Z,100629.76
2023-03-30T04:01:27.463Z,100628.05
2023-03-30T04:04:32.824Z,100625.83
2023-03-30T04:07:41.092Z,100631.73
2023-03-30T04:10:46.707Z,100616.73
2023-03-30T04:13:58.065Z,100622.84
2023-03-30T04:17:10.102Z,100617.20
2023-03-30T04:20:34.123Z,100630.80
2023-03-30T04:23:43.361Z,100610.05
2023-03-30T04:27:08.257Z,100601.95
2023-03-30T04:30:15.428Z,100604.89
2023-03-30T04:33:24.978Z,100611.28
2023-03-30T04:36:39.701Z,100600.83
2023-03-30T04:39:48.982Z,100601.54
2023-03-30T04:43:14.226Z,100591.69
2023-03-30T04:46:28.802Z,100592.80
2023-03-30T04:49:34.978Z,100604.17
2023-03-30T04:52:42.160Z,100598.14
2023-03-30T04:55:49.193Z,100609.33
2023-03-30T04:58:58.546Z,100605.16
2023-03-30T05:02:08.091Z,100593.27
2023-03-30T05:05:25.984Z,100604.54
2023-03-30T05:08:42.293Z,100604.94
2023-03-30T05:11:49.982Z,100601.77
2023-03-30T05:15:15.338Z,100594.67
2023-03-30T05:18:39.193Z,100593.80
2023-03-30T05:21:47.127Z,100597.73
2023-03-30T05:25:03.448Z,100602.30
2023-03-30T05:28:15.798Z,100612.03
2023-03-30T05:31:23.660Z,100615.86
2023-03-30T05:34:41.861Z,100625.12
2023-03-30T05:38:01.963Z,100621.83
2023-03-30T05:41:17.619Z,100634.97
2023-03-30T05:44:41.032Z,100636.25
2023-03-30T05:48:08.653Z,100640.42
2023-03-30T05:51:16.103Z,100638.36
2023-03-30T05:54:33.370Z,100636.17
2023-03-30T05:57:42.007Z,100635.58
2023-03-30T06:00:50.844Z,100619.61
2023-03-30T06:03:59.604Z,100612.38
2023-03-30T06:07:07.146Z,100610.67
2023-03-30T06:10:14.963Z,100614.36
2023-03-30T06:13:22.181Z,100616.91
2023-03-30T06:16:29.558Z,100623.66
2023-03-30T06:19:39.422Z,100608.56
2023-03-30T06:22:45.572Z,100626.24
2023-03-30T06:25:57.096Z,100622.55
2023-03-30T06:29:04.384Z,100630.80
2023-03-30T06:32:12.861Z,100638.91
2023-03-30T06:35:20.640Z,100642.84
2023-03-30T06:38:25.690Z,100635.09
2023-03-30T06:41:34.088Z,100624.77
2023-03-30T06:44:42.294Z,100626.13
2023-03-30T06:47:51.777Z,100629.09
2023-03-30T06:51:01.389Z,100626.79
2023-03-30T06:54:07.818Z,100631.71
2023-03-30T06:57:15.960Z,100632.10
2023-03-30T07:00:22.653Z,100627.33
2023-03-30T07:03:48.157Z,100629.67
2023-03-30T07:06:58.326Z,100635.79
2023-03-30T07:10:04.866Z,100635.45
2023-03-30T07:13:10.997Z,100636.94
2023-03-30T07:16:23.871Z,100636.70
2023-03-30T07:19:29.349Z,100644.33
2023-03-30T07:22:35.781Z,100650.60
2023-03-30T07:25:41.627Z,100635.84
2023-03-30T07:28:55.576Z,100653.31
2023-03-30T07:32:04.282Z,100656.03
2023-03-30T07:35:11.971Z,100646.66
2023-03-30T07:38:18.595Z,100640.75
2023-03-30T07:41:27.206Z,100643.83
2023-03-30T07:44:35.915Z,100641.48
2023-03-30T07:47:45.241Z,100635.34
2023-03-30T07:50:51.300Z,100644.22
2023-03-30T07:54:03.450Z,100636.59
2023-03-30T07:57:18.032Z,100648.05
2023-03-30T08:00:24.398Z,100645.68
2023-03-30T08:03:45.782Z,100640.89
2023-03-30T08:06:51.128Z,100646.17
2023-03-30T08:09:57.378Z,100645.80
2023-03-30T08:13:03.157Z,100644.83
2023-03-30T08:16:10.770Z,100638.80
2023-03-30T08:19:16.109Z,100636.00
2023-03-30T08:22:21.097Z,100639.66
2023-03-30T08:25:26.049Z,100635.11
2023-03-30T08:28:32.320Z,100640.39
2023-03-30T08:31:39.816Z,100647.65
2023-03-30T08:34:47.660Z,100645.06
2023-03-30T08:37:53.654Z,100644.97
2023-03-30T08:41:04.747Z,100648.41
2023-03-30T08:44:45.735Z,100644.70
2023-03-30T08:48:01.264Z,100641.88
2023-03-30T08:51:18.642Z,100645.56
2023-03-30T08:54:32.036Z,100647.03
2023-03-30T08:57:48.398Z,100640.50
2023-03-30T09:01:41.369Z,100631.64
2023-03-30T09:05:32.077Z,100642.08
2023-03-30T09:08:39.227Z,100640.12
2023-03-30T09:11:51.117Z,100633.63
2023-03-30T09:15:01.451Z,100625.14
2023-03-30T09:18:19.052Z,100631.53
2023-03-30T09:21:26.058Z,100622.70
2023-03-30T09:24:36.697Z,100626.25
2023-03-30T09:28:09.588Z,100629.67
2023-03-30T09:31:25.161Z,100622.06
2023-03-30T09:34:41.411Z,100620.73
2023-03-30T09:37:48.538Z,100619.37
2023-03-30T09:41:18.038Z,100610.28
2023-03-30T09:44:40.341Z,100611.74
2023-03-30T09:47:51.152Z,100599.80
2023-03-30T09:51:00.158Z,100602.51
2023-03-30T09:54:15.591Z,100593.62
2023-03-30T09:57:42.850Z,100596.59
2023-03-30T10:00:48.727Z,100594.59
2023-03-30T10:03:56.872Z,100610.09
2023-03-30T10:07:18.112Z,100604.90
2023-03-30T10:10:15.612Z,100604.67
2023-03-30T10:13:28.598Z,100601.58
2023-03-30T10:16:43.207Z,100596.52
2023-03-30T10:19:57.528Z,100595.87
2023-03-30T10:23:09.251Z,100607.66
2023-03-30T10:26:20.990Z,100602.99
2023-03-30T10:29:29.967Z,100600.06
2023-03-30T10:32:39.806Z,100598.09
2023-03-30T10:35:52.924Z,100593.42
2023-03-30T10:39:00.735Z,100591.80
2023-03-30T10:42:09.529Z,100598.31
2023-03-30T10:45:17.569Z,100597.17
2023-03-30T10:48:40.293Z,100584.94
2023-03-30T10:52:08.320Z,100606.00
2023-03-30T10:55:21.556Z,100591.23
2023-03-30T10:58:49.840Z,100583.41
2023-03-30T11:02:13.192Z,100581.10
2023-03-30T11:05:26.033Z,100572.33
2023-03-30T11:08:47.842Z,100573.41
2023-03-30T11:11:56.746Z,100567.25
2023-03-30T11:15:08.517Z,100559.83
2023-03-30T11:18:49.367Z,100561.03
2023-03-30T11:22:03.402Z,100552.02
2023-03-30T11:25:10.027Z,100551.14
2023-03-30T11:28:35.646Z,100552.58
2023-03-30T11:32:09.396Z,100531.98
2023-03-30T11:35:22.556Z,100525.13
2023-03-30T11:38:40.617Z,100525.52
2023-03-30T11:42:09.720Z,100522.88
2023-03-30T11:45:16.243Z,100512.85
2023-03-30T11:48:31.865Z,100505.50
2023-03-30T11:52:07.591Z,100495.59
2023-03-30T11:55:46.212Z,100498.38
2023-03-30T11:59:12.157Z,100489.96
2023-03-30T12:02:34.215Z,100483.24
2023-03-30T12:05:58.646Z,100480.61
2023-03-30T12:12:33.574Z,100471.98
2023-03-30T12:15:47.799Z,100469.55
2023-03-30T12:18:58.858Z,100473.72
2023-03-30T12:22:13.381Z,100473.58
2023-03-30T12:25:38.058Z,100465.50
2023-03-30T12:32:11.885Z,100463.73
2023-03-30T12:35:19.695Z,100458.02
2023-03-30T12:38:27.085Z,100465.09
2023-03-30T12:41:32.932Z,100461.59
2023-03-30T12:45:21.827Z,100459.03
2023-03-30T12:48:50.755Z,100459.46
2023-03-30T12:52:04.983Z,100451.37
2023-03-30T12:55:41.165Z,100449.66
2023-03-30T12:59:28.473Z,100441.38
2023-03-30T13:02:59.521Z,100451.23
2023-03-30T13:06:08.759Z,100445.59
2023-03-30T13:09:30.819Z,100454.81
2023-03-30T13:12:48.755Z,100448.89
2023-03-30T13:16:09.125Z,100448.02
2023-03-30T13:19:15.076Z,100430.80
2023-03-30T13:22:30.800Z,100444.73
2023-03-30T13:25:53.855Z,100428.03
2023-03-30T13:29:10.148Z,100420.86
2023-03-30T13:32:49.403Z,100439.61
2023-03-30T13:36:22.428Z,100420.16
2023-03-30T13:39:42.391Z,100428.16
2023-03-30T13:43:04.447Z,100417.29
2023-03-30T13:46:26.166Z,100425.24
2023-03-30T13:49:54.594Z,100414.67
2023-03-30T13:53:01.584Z,100411.69
2023-03-30T13:56:07.721Z,100405.89
2023-03-30T13:59:30.053Z,100400.88
2023-03-30T14:05:42.894Z,100406.31
2023-03-30T14:08:51.763Z,100406.19
2023-03-30T14:12:05.134Z,100402.68
2023-03-30T14:15:12.170Z,100395.89
2023-03-30T14:18:18.281Z,100394.62
2023-03-30T14:21:34.122Z,100392.84
2023-03-30T14:24:45.480Z,100384.81
2023-03-30T14:27:52.601Z,100387.48
2023-03-30T14:31:15.953Z,100395.34
2023-03-30T14:34:46.926Z,100386.98
2023-03-30T14:37:57.175Z,100381.11
2023-03-30T14:41:01.956Z,100382.80
2023-03-30T14:44:19.507Z,100373.73
2023-03-30T14:47:25.690Z,100373.36
2023-03-30T14:50:31.664Z,100379.48
2023-03-30T14:53:42.693Z,100379.42
2023-03-30T14:56:49.179Z,100372.74
2023-03-30T15:00:05.310Z,100365.38
2023-03-30T15:03:22.933Z,100359.66
2023-03-30T15:06:24.550Z,100356.25
2023-03-30T15:09:36.207Z,100356.92
2023-03-30T15:12:50.223Z,100363.86
2023-03-30T15:15:55.272Z,100362.61
2023-03-30T15:19:02.006Z,100356.09
2023-03-30T15:22:10.873Z,100357.96
2023-03-30T15:25:19.932Z,100359.49
2023-03-30T15:28:31.067Z,100350.52
2023-03-30T15:31:39.273Z,100350.53
2023-03-30T15:34:46.045Z,100351.42
2023-03-30T15:37:52.887Z,100346.26
2023-03-30T15:41:01.230Z,100349.37
2023-03-30T15:44:15.675Z,100340.14
2023-03-30T15:47:26.047Z,100349.83
2023-03-30T15:50:31.645Z,100343.95
2023-03-30T15:53:46.089Z,100339.72
2023-03-30T15:56:57.730Z,100341.64
2023-03-30T16:00:12.115Z,100342.48
2023-03-30T16:03:19.305Z,100341.70
2023-03-30T16:06:26.865Z,100337.91
2023-03-30T16:09:32.601Z,100345.14
2023-03-30T16:12:43.466Z,100336.16
2023-03-30T16:15:49.954Z,100342.14
2023-03-30T16:18:56.450Z,100337.22
2023-03-30T16:22:02.098Z,100338.94
2023-03-30T16:25:09.209Z,100333.75
2023-03-30T16:28:16.017Z,100336.67
2023-03-30T16:31:29.390Z,100340.07
2023-03-30T16:34:34.593Z,100338.55
2023-03-30T16:37:41.681Z,100341.94
2023-03-30T16:41:00.299Z,100339.02
2023-03-30T16:44:08.450Z,100348.89
2023-03-30T16:47:14.395Z,100354.29
2023-03-30T16:50:39.279Z,100350.38
2023-03-30T16:53:44.302Z,100347.29
2023-03-30T16:56:50.032Z,100349.86
2023-03-30T16:59:56.366Z,100349.86
2023-03-30T17:03:02.682Z,100353.78
2023-03-30T17:06:09.817Z,100355.13
2023-03-30T17:09:15.245Z,100359.42
2023-03-30T17:12:20.224Z,100359.27
2023-03-30T17:15:26.923Z,100367.59
2023-03-30T17:18:34.029Z,100370.14
2023-03-30T17:21:42.571Z,100361.50
2023-03-30T17:24:49.977Z,100358.27
2023-03-30T17:27:56.806Z,100360.53
2023-03-30T17:31:02.965Z,100363.07
2023-03-30T17:34:11.213Z,100358.83
2023-03-30T17:37:17.283Z,100362.58
2023-03-30T17:40:38.649Z,100363.27
2023-03-30T17:43:44.812Z,100361.95
2023-03-30T17:46:52.551Z,100363.36
2023-03-30T17:49:58.729Z,100359.19
2023-03-30T17:53:06.634Z,100357.77
2023-03-30T17:56:12.269Z,100358.91
2023-03-30T17:59:18.979Z,100358.31
2023-03-30T18:02:25.354Z,100355.87
2023-03-30T18:05:30.665Z,100352.08
2023-03-30T18:08:37.783Z,100362.31
2023-03-30T18:11:45.962Z,100353.25
2023-03-30T18:14:52.352Z,100352.41
2023-03-30T18:17:58.828Z,100357.39
2023-03-30T18:21:09.552Z,100349.28
2023-03-30T18:24:16.231Z,100345.28
2023-03-30T18:27:22.504Z,100348.00
2023-03-30T18:30:47.399Z,100344.48
2023-03-30T18:33:53.869Z,100345.50
2023-03-30T18:37:02.068Z,100347.59
2023-03-30T18:40:11.074Z,100343.81
2023-03-30T18:43:18.828Z,100349.34
2023-03-30T18:46:26.770Z,100352.19
2023-03-30T18:49:33.128Z,100334.62
2023-03-30T18:52:40.915Z,100336.75
2023-03-30T18:55:52.121Z,100337.63
2023-03-30T18:58:58.340Z,100345.48
2023-03-30T19:02:05.397Z,100338.99
2023-03-30T19:05:10.982Z,100334.84
2023-03-30T19:08:17.386Z,100332.02
2023-03-30T19:11:24.184Z,100330.45
2023-03-30T19:14:28.892Z,100323.47
2023-03-30T19:17:35.004Z,100333.06
2023-03-30T19:20:43.726Z,100325.05
2023-03-30T19:23:48.774Z,100338.47
2023-03-30T19:26:55.677Z,100329.63
2023-03-30T19:30:01.567Z,100335.67
2023-03-30T19:33:12.552Z,100332.45
2023-03-30T19:36:20.983Z,100328.05
2023-03-30T19:39:27.935Z,100323.61
2023-03-30T19:42:36.540Z,100328.80
2023-03-30T19:45:43.185Z,100328.05
2023-03-30T19:48:51.840Z,100319.11
2023-03-30T19:51:58.106Z,100319.02
2023-03-30T19:55:05.565Z,100320.11
2023-03-30T19:58:12.906Z,100317.19
2023-03-30T20:01:21.825Z,100320.62
2023-03-30T20:04:27.898Z,100316.35
2023-03-30T20:07:33.295Z,100313.91
2023-03-30T20:10:40.365Z,100312.78
2023-03-30T20:13:47.467Z,100310.73
2023-03-30T20:16:54.761Z,100308.63
2023-03-30T20:20:00.820Z,100301.66
2023-03-30T20:23:07.908Z,100319.44
2023-03-30T20:26:12.949Z,100308.05
2023-03-30T20:29:18.792Z,100310.36
2023-03-30T20:32:23.978Z,100310.63
2023-03-30T20:35:32.322Z,100306.47
2023-03-30T20:38:38.255Z,100304.38
2023-03-30T20:41:47.630Z,100301.55
2023-03-30T20:44:55.871Z,100305.23
2023-03-30T20:48:03.039Z,100301.67
2023-03-30T20:51:12.120Z,100301.80
2023-03-30T20:54:20.080Z,100299.22
2023-03-30T20:57:26.120Z,100297.52
2023-03-30T21:00:33.031Z,100299.99
2023-03-30T21:03:38.373Z,100292.86
2023-03-30T21:06:44.910Z,100292.11
2023-03-30T21:09:52.823Z,100285.62
2023-03-30T21:12:59.987Z,100279.51
2023-03-30T21:16:18.493Z,100280.72
2023-03-30T21:19:18.735Z,100278.16
2023-03-30T21:22:25.880Z,100270.66
2023-03-30T21:25:34.734Z,100270.55
2023-03-30T21:28:41.678Z,100275.69
2023-03-30T21:31:48.695Z,100270.55
2023-03-30T21:34:55.695Z,100271.54
2023-03-30T21:38:03.942Z,100261.35
2023-03-30T21:41:14.886Z,100261.13
2023-03-30T21:44:21.603Z,100257.55
2023-03-30T21:47:27.869Z,100257.33
2023-03-30T21:50:33.873Z,100257.45
2023-03-30T21:53:40.926Z,100254.02
2023-03-30T21:56:47.440Z,100253.78
2023-03-30T21:59:54.535Z,100242.72
2023-03-30T22:03:03.592Z,100249.12
2023-03-30T22:06:16.484Z,100244.33
2023-03-30T22:09:22.913Z,100233.04
2023-03-30T22:12:28.873Z,100228.38
2023-03-30T22:15:35.306Z,100221.41
2023-03-30T22:18:42.957Z,100223.87
2023-03-30T22:21:49.663Z,100219.08
2023-03-30T22:24:56.492Z,100212.20
2023-03-30T22:28:06.930Z,100214.66
2023-03-30T22:31:13.088Z,100214.52
2023-03-30T22:34:21.676Z,100212.46
2023-03-30T22:37:26.922Z,100207.92
2023-03-30T22:40:32.739Z,100211.83
2023-03-30T22:43:39.335Z,100207.07
2023-03-30T22:46:44.643Z,100202.28
2023-03-30T22:49:50.086Z,100204.23
2023-03-30T22:52:55.540Z,100204.74
2023-03-30T22:56:03.211Z,100203.13
2023-03-30T22:59:10.487Z,100200.08
2023-03-30T23:02:17.127Z,100193.07
2023-03-30T23:05:24.510Z,100197.63
2023-03-30T23:08:31.677Z,100191.14
2023-03-30T23:11:42.210Z,100190.88
2023-03-30T23:14:49.166Z,100191.59
2023-03-30T23:17:55.346Z,100185.49
2023-03-30T23:21:03.524Z,100184.39
2023-03-30T23:24:09.599Z,100182.42
2023-03-30T23:27:16.223Z,100183.50
2023-03-30T23:30:24.076Z,100187.19
2023-03-30T23:33:31.484Z,100183.00
2023-03-30T23:36:38.788Z,100182.28
2023-03-30T23:39:44.106Z,100182.02
2023-03-30T23:42:49.811Z,100182.77
2023-03-30T23:45:58.955Z,100178.58
2023-03-30T23:49:06.180Z,100175.66
2023-03-30T23:52:12.994Z,100176.25
2023-03-30T23:55:22.914Z,100184.94
2023-03-30T23:58:29.109Z,100181.49
